createdAt,value
2023-02-19T00:02:20.914Z,69.83
2023-02-19T00:05:24.541Z,70.02
2023-02-19T00:08:27.453Z,70.09
2023-02-19T00:11:33.192Z,69.50
2023-02-19T00:14:35.959Z,69.85
2023-02-19T00:17:38.818Z,69.70
2023-02-19T00:20:42.395Z,70.10
2023-02-19T00:23:52.534Z,69.89
2023-02-19T00:26:55.287Z,69.57
2023-02-19T00:29:58.709Z,69.78
2023-02-19T00:33:01.647Z,69.62
2023-02-19T00:36:06.165Z,69.54
2023-02-19T00:39:14.327Z,69.33
2023-02-19T00:42:17.204Z,69.45
2023-02-19T00:45:20.100Z,69.39
2023-02-19T00:48:23.469Z,69.53
2023-02-19T00:51:29.721Z,69.62
2023-02-19T00:54:32.800Z,69.68
2023-02-19T00:57:35.703Z,69.91
2023-02-19T01:00:38.924Z,70.03
2023-02-19T01:03:42.292Z,69.99
2023-02-19T01:06:45.212Z,69.86
2023-02-19T01:09:48.042Z,69.54
2023-02-19T01:12:51.002Z,69.72
2023-02-19T01:15:54.607Z,69.72
2023-02-19T01:18:58.418Z,69.83
2023-02-19T01:22:01.281Z,69.83
2023-02-19T01:25:06.418Z,70.17
2023-02-19T01:28:11.455Z,70.25
2023-02-19T01:31:18.527Z,70.45
2023-02-19T01:34:21.713Z,70.70
2023-02-19T01:37:24.600Z,70.59
2023-02-19T01:40:29.134Z,71.34
2023-02-19T01:43:33.204Z,71.44
2023-02-19T01:46:37.723Z,71.56
2023-02-19T01:50:01.866Z,71.44
2023-02-19T01:53:08.896Z,71.78
2023-02-19T01:56:13.710Z,71.61
2023-02-19T01:59:18.490Z,71.22
2023-02-19T02:02:22.884Z,71.12
2023-02-19T02:05:47.975Z,70.86
2023-02-19T02:09:15.790Z,70.73
2023-02-19T02:12:18.864Z,70.67
2023-02-19T02:15:24.579Z,70.18
2023-02-19T02:19:23.088Z,70.04
2023-02-19T02:22:43.002Z,70.35
2023-02-19T02:26:10.600Z,70.65
2023-02-19T02:29:25.434Z,71.16
2023-02-19T02:32:36.277Z,71.29
2023-02-19T02:35:56.949Z,71.25
2023-02-19T02:39:03.666Z,70.73
2023-02-19T02:42:30.208Z,70.77
2023-02-19T02:45:45.620Z,70.32
2023-02-19T02:48:58.841Z,70.57
2023-02-19T02:52:22.393Z,70.51
2023-02-19T02:55:29.033Z,70.01
2023-02-19T02:58:34.161Z,69.79
2023-02-19T03:02:08.913Z,70.01
2023-02-19T03:05:30.172Z,70.02
2023-02-19T03:08:39.292Z,70.38
2023-02-19T03:12:06.023Z,70.40
2023-02-19T03:15:33.368Z,70.68
2023-02-19T03:18:57.247Z,70.59
2023-02-19T03:22:17.299Z,70.79
2023-02-19T03:25:42.932Z,70.81
2023-02-19T03:29:10.048Z,71.01
2023-02-19T03:32:29.775Z,70.50
2023-02-19T03:35:37.110Z,70.18
2023-02-19T03:38:48.975Z,70.38
2023-02-19T03:42:10.589Z,69.87
2023-02-19T03:45:32.482Z,70.05
2023-02-19T03:48:53.151Z,69.92
2023-02-19T03:52:21.946Z,69.77
2023-02-19T03:55:51.606Z,69.22
2023-02-19T03:59:11.946Z,69.28
2023-02-19T04:02:33.982Z,69.21
2023-02-19T04:05:42.333Z,69.33
2023-02-19T04:08:50.294Z,69.94
2023-02-19T04:11:55.428Z,70.44
2023-02-19T04:15:04.493Z,71.01
2023-02-19T04:18:16.476Z,71.17
2023-02-19T04:21:21.872Z,71.25
2023-02-19T04:24:50.365Z,71.44
2023-02-19T04:27:53.270Z,71.43
2023-02-19T04:30:56.199Z,71.79
2023-02-19T04:33:59.015Z,72.07
2023-02-19T04:37:01.913Z,72.30
2023-02-19T04:40:05.211Z,71.93
2023-02-19T04:43:08.190Z,71.78
2023-02-19T04:46:10.936Z,71.70
2023-02-19T04:49:13.784Z,71.92
2023-02-19T04:52:16.890Z,71.72
2023-02-19T04:55:19.792Z,72.71
2023-02-19T04:58:22.825Z,72.38
2023-02-19T05:01:26.342Z,73.01
2023-02-19T05:04:29.335Z,72.56
2023-02-19T05:07:32.299Z,72.85
2023-02-19T05:10:36.525Z,73.31
2023-02-19T05:13:40.560Z,73.45
2023-02-19T05:16:43.409Z,73.11
2023-02-19T05:19:46.452Z,73.32
2023-02-19T05:22:49.604Z,73.14
2023-02-19T05:25:52.711Z,72.67
2023-02-19T05:28:55.483Z,72.17
2023-02-19T05:31:58.637Z,72.74
2023-02-19T05:35:01.540Z,72.78
2023-02-19T05:38:06.134Z,72.68
2023-02-19T05:41:17.381Z,72.75
2023-02-19T05:44:20.361Z,72.36
2023-02-19T05:47:23.204Z,71.89
2023-02-19T05:50:26.789Z,71.93
2023-02-19T05:53:29.646Z,72.16
2023-02-19T05:56:42.934Z,71.94
2023-02-19T05:59:45.742Z,71.05
2023-02-19T06:02:49.119Z,70.72
2023-02-19T06:05:52.105Z,70.40
2023-02-19T06:08:55.472Z,69.90
2023-02-19T06:11:58.385Z,69.46
2023-02-19T06:15:01.247Z,69.02
2023-02-19T06:18:04.376Z,68.67
2023-02-19T06:21:10.408Z,68.19
2023-02-19T06:24:13.626Z,67.53
2023-02-19T06:27:16.783Z,66.80
2023-02-19T06:30:19.885Z,66.76
2023-02-19T06:33:22.707Z,66.48
2023-02-19T06:36:25.825Z,66.07
2023-02-19T06:39:28.641Z,66.22
2023-02-19T06:42:34.518Z,66.21
2023-02-19T06:45:37.340Z,66.48
2023-02-19T06:48:41.731Z,67.18
2023-02-19T06:51:44.642Z,67.06
2023-02-19T06:54:47.609Z,67.44
2023-02-19T06:57:50.476Z,67.13
2023-02-19T07:00:54.029Z,66.82
2023-02-19T07:03:57.089Z,65.59
2023-02-19T07:07:00.549Z,65.38
2023-02-19T07:10:04.725Z,65.28
2023-02-19T07:13:08.419Z,65.30
2023-02-19T07:16:12.450Z,64.77
2023-02-19T07:19:16.067Z,64.50
2023-02-19T07:22:18.945Z,63.81
2023-02-19T07:25:21.980Z,63.80
2023-02-19T07:28:25.026Z,63.65
2023-02-19T07:31:28.929Z,62.85
2023-02-19T07:34:32.077Z,61.96
2023-02-19T07:37:35.047Z,62.03
2023-02-19T07:40:38.616Z,62.27
2023-02-19T07:43:41.536Z,61.86
2023-02-19T07:46:44.658Z,61.10
2023-02-19T07:49:47.714Z,60.22
2023-02-19T07:52:50.444Z,58.92
2023-02-19T07:55:53.839Z,59.25
2023-02-19T07:58:56.732Z,59.69
2023-02-19T08:02:18.459Z,59.67
2023-02-19T08:05:21.313Z,59.48
2023-02-19T08:08:24.349Z,59.09
2023-02-19T08:11:45.894Z,56.01
2023-02-19T08:14:48.838Z,54.19
2023-02-19T08:17:52.172Z,55.05
2023-02-19T08:20:56.051Z,54.43
2023-02-19T08:23:58.953Z,53.46
2023-02-19T08:27:01.822Z,54.33
2023-02-19T08:30:05.595Z,55.00
2023-02-19T08:33:10.761Z,54.83
2023-02-19T08:36:13.679Z,54.53
2023-02-19T08:39:16.862Z,55.36
2023-02-19T08:42:20.425Z,56.13
2023-02-19T08:45:24.537Z,56.21
2023-02-19T08:48:27.897Z,56.45
2023-02-19T08:51:30.712Z,55.44
2023-02-19T08:54:33.569Z,55.22
2023-02-19T08:57:37.809Z,54.48
2023-02-19T09:00:41.268Z,55.49
2023-02-19T09:03:44.464Z,55.62
2023-02-19T09:06:47.356Z,56.08
2023-02-19T09:09:50.665Z,56.46
2023-02-19T09:12:53.495Z,57.15
2023-02-19T09:15:57.384Z,58.72
2023-02-19T09:19:00.442Z,59.16
2023-02-19T09:22:04.692Z,59.47
2023-02-19T09:25:07.776Z,59.85
2023-02-19T09:28:10.501Z,60.64
2023-02-19T09:31:16.060Z,60.01
2023-02-19T09:34:19.189Z,59.79
2023-02-19T09:37:25.952Z,59.80
2023-02-19T09:40:30.502Z,60.31
2023-02-19T09:43:34.005Z,59.63
2023-02-19T09:46:52.011Z,59.45
2023-02-19T09:50:01.155Z,59.55
2023-02-19T09:53:12.968Z,60.51
2023-02-19T09:56:16.358Z,59.86
2023-02-19T09:59:31.949Z,59.47
2023-02-19T10:02:34.853Z,59.78
2023-02-19T10:05:40.047Z,60.77
2023-02-19T10:08:46.123Z,60.78
2023-02-19T10:11:49.969Z,61.51
2023-02-19T10:15:00.225Z,61.82
2023-02-19T10:18:05.245Z,62.01
2023-02-19T10:21:19.855Z,61.84
2023-02-19T10:24:29.861Z,61.87
2023-02-19T10:27:33.399Z,62.87
2023-02-19T10:30:37.545Z,62.93
2023-02-19T10:33:58.404Z,63.28
2023-02-19T10:37:01.387Z,63.54
2023-02-19T10:40:04.702Z,63.48
2023-02-19T10:43:22.583Z,63.41
2023-02-19T10:46:32.184Z,63.29
2023-02-19T10:49:40.866Z,62.69
2023-02-19T10:52:44.054Z,62.57
2023-02-19T10:55:46.981Z,63.20
2023-02-19T10:58:50.234Z,62.79
2023-02-19T11:02:01.866Z,62.34
2023-02-19T11:05:19.979Z,61.64
2023-02-19T11:08:24.099Z,61.51
2023-02-19T11:11:35.547Z,61.28
2023-02-19T11:14:43.566Z,60.46
2023-02-19T11:17:55.371Z,59.19
2023-02-19T11:21:01.170Z,58.62
2023-02-19T11:24:04.485Z,58.13
2023-02-19T11:27:19.513Z,57.65
2023-02-19T11:30:33.863Z,58.02
2023-02-19T11:33:45.091Z,57.44
2023-02-19T11:37:11.792Z,58.27
2023-02-19T11:40:14.614Z,57.55
2023-02-19T11:43:39.578Z,56.90
2023-02-19T11:46:57.088Z,57.15
2023-02-19T11:50:14.845Z,56.57
2023-02-19T11:53:28.065Z,55.88
2023-02-19T11:56:36.704Z,54.76
2023-02-19T11:59:53.846Z,53.17
2023-02-19T12:03:34.692Z,50.51
2023-02-19T12:06:49.372Z,50.63
2023-02-19T12:09:59.552Z,51.94
2023-02-19T12:13:14.351Z,52.05
2023-02-19T12:16:30.161Z,51.82
2023-02-19T12:19:55.010Z,50.56
2023-02-19T12:23:35.055Z,52.25
2023-02-19T12:27:08.689Z,51.83
2023-02-19T12:30:29.797Z,46.79
2023-02-19T12:33:53.900Z,41.53
2023-02-19T12:37:23.779Z,45.05
2023-02-19T12:40:57.887Z,47.73
2023-02-19T12:44:37.861Z,49.37
2023-02-19T12:47:43.790Z,51.25
2023-02-19T12:50:50.899Z,51.94
2023-02-19T12:54:12.601Z,51.80
2023-02-19T12:57:29.316Z,51.59
2023-02-19T13:00:45.541Z,49.17
2023-02-19T13:03:54.776Z,49.06
2023-02-19T13:07:17.660Z,48.10
2023-02-19T13:11:00.194Z,47.19
2023-02-19T13:14:13.677Z,43.17
2023-02-19T13:17:26.938Z,44.41
2023-02-19T13:20:38.115Z,45.95
2023-02-19T13:23:59.545Z,46.76
2023-02-19T13:27:44.283Z,47.66
2023-02-19T13:31:22.193Z,45.07
2023-02-19T13:34:48.073Z,35.52
2023-02-19T13:37:54.320Z,34.54
2023-02-19T13:41:00.244Z,32.97
2023-02-19T13:44:06.863Z,35.46
2023-02-19T13:47:49.678Z,35.83
2023-02-19T13:51:26.865Z,36.47
2023-02-19T13:54:40.476Z,32.69
2023-02-19T13:57:45.043Z,33.86
2023-02-19T14:00:55.112Z,33.03
2023-02-19T14:04:18.514Z,34.55
2023-02-19T14:07:27.367Z,35.47
2023-02-19T14:10:58.431Z,40.92
2023-02-19T14:14:06.701Z,42.34
2023-02-19T14:17:10.126Z,41.78
2023-02-19T14:20:17.143Z,37.80
2023-02-19T14:23:24.356Z,40.56
2023-02-19T14:26:30.974Z,39.24
2023-02-19T14:29:34.311Z,38.08
2023-02-19T14:32:42.221Z,39.22
2023-02-19T14:35:49.564Z,42.09
2023-02-19T14:38:58.552Z,47.60
2023-02-19T14:42:09.821Z,48.79
2023-02-19T14:45:16.224Z,48.52
2023-02-19T14:48:24.723Z,44.53
2023-02-19T14:51:33.712Z,42.67
2023-02-19T14:54:43.355Z,42.34
2023-02-19T14:57:49.878Z,43.19
2023-02-19T15:00:53.077Z,47.02
2023-02-19T15:03:56.719Z,49.22
2023-02-19T15:07:02.736Z,50.45
2023-02-19T15:10:11.434Z,51.33
2023-02-19T15:13:23.423Z,52.05
2023-02-19T15:16:28.427Z,52.68
2023-02-19T15:19:39.733Z,52.77
2023-02-19T15:22:46.326Z,52.96
2023-02-19T15:25:49.762Z,52.70
2023-02-19T15:29:20.208Z,53.53
2023-02-19T15:32:27.168Z,53.84
2023-02-19T15:35:32.756Z,54.24
2023-02-19T15:38:36.521Z,54.82
2023-02-19T15:41:39.650Z,55.29
2023-02-19T15:44:47.626Z,55.93
2023-02-19T15:47:59.552Z,56.17
2023-02-19T15:51:09.935Z,56.58
2023-02-19T15:54:38.610Z,56.98
2023-02-19T15:57:46.712Z,57.31
2023-02-19T16:00:57.495Z,57.34
2023-02-19T16:04:01.014Z,58.00
2023-02-19T16:07:04.153Z,58.13
2023-02-19T16:10:19.336Z,58.35
2023-02-19T16:13:31.836Z,58.86
2023-02-19T16:16:41.125Z,59.31
2023-02-19T16:19:57.580Z,59.65
2023-02-19T16:23:10.617Z,59.87
2023-02-19T16:26:14.135Z,60.63
2023-02-19T16:29:22.780Z,60.73
2023-02-19T16:32:26.158Z,61.06
2023-02-19T16:35:40.126Z,61.94
2023-02-19T16:39:08.310Z,62.35
2023-02-19T16:42:13.670Z,63.10
2023-02-19T16:45:18.192Z,63.46
2023-02-19T16:48:23.139Z,64.10
2023-02-19T16:51:27.549Z,63.88
2023-02-19T16:54:30.815Z,64.83
2023-02-19T16:57:33.874Z,64.82
2023-02-19T17:00:37.167Z,64.97
2023-02-19T17:03:40.498Z,64.98
2023-02-19T17:06:44.634Z,65.58
2023-02-19T17:09:47.637Z,65.66
2023-02-19T17:12:52.018Z,65.98
2023-02-19T17:15:55.648Z,66.05
2023-02-19T17:18:59.067Z,66.13
2023-02-19T17:22:02.077Z,66.44
2023-02-19T17:25:05.595Z,66.40
2023-02-19T17:28:08.597Z,67.39
2023-02-19T17:31:13.964Z,67.77
2023-02-19T17:34:17.174Z,68.00
2023-02-19T17:37:20.150Z,68.20
2023-02-19T17:40:33.082Z,68.28
2023-02-19T17:43:36.717Z,68.01
2023-02-19T17:46:41.189Z,67.79
2023-02-19T17:49:44.290Z,67.67
2023-02-19T17:52:47.451Z,67.81
2023-02-19T17:55:51.069Z,67.59
2023-02-19T17:58:55.975Z,67.73
2023-02-19T18:01:59.171Z,67.73
2023-02-19T18:05:02.034Z,68.07
2023-02-19T18:08:04.928Z,67.53
2023-02-19T18:11:08.324Z,67.45
2023-02-19T18:14:11.541Z,67.55
2023-02-19T18:17:15.245Z,67.67
2023-02-19T18:20:22.333Z,67.67
2023-02-19T18:23:25.562Z,67.78
2023-02-19T18:26:28.782Z,67.74
2023-02-19T18:29:35.043Z,67.89
2023-02-19T18:32:39.174Z,67.98
2023-02-19T18:35:42.367Z,69.56
2023-02-19T18:38:46.370Z,72.85
2023-02-19T18:41:51.916Z,76.37
2023-02-19T18:44:56.226Z,77.98
2023-02-19T18:47:59.300Z,80.26
2023-02-19T18:51:02.572Z,79.82
2023-02-19T18:54:07.937Z,80.33
2023-02-19T18:57:11.058Z,80.71
2023-02-19T19:00:26.516Z,81.45
2023-02-19T19:03:31.679Z,83.48
2023-02-19T19:06:37.733Z,83.69
2023-02-19T19:09:40.969Z,84.36
2023-02-19T19:12:44.951Z,86.07
2023-02-19T19:15:51.464Z,87.06
2023-02-19T19:18:55.530Z,87.87
2023-02-19T19:21:58.838Z,87.90
2023-02-19T19:25:02.052Z,89.41
2023-02-19T19:28:05.427Z,89.11
2023-02-19T19:31:08.377Z,89.34
2023-02-19T19:34:12.742Z,89.91
2023-02-19T19:37:16.954Z,89.96
2023-02-19T19:40:20.337Z,85.08
2023-02-19T19:43:27.447Z,85.29
2023-02-19T19:46:30.879Z,85.01
2023-02-19T19:49:34.153Z,84.00
2023-02-19T19:52:37.469Z,81.82
2023-02-19T19:55:41.249Z,81.43
2023-02-19T19:58:44.685Z,80.57
2023-02-19T20:01:52.668Z,77.85
2023-02-19T20:04:55.593Z,75.42
2023-02-19T20:07:58.785Z,74.60
2023-02-19T20:11:03.114Z,74.18
2023-02-19T20:14:06.330Z,73.89
2023-02-19T20:17:09.764Z,73.64
2023-02-19T20:20:13.938Z,74.42
2023-02-19T20:23:17.129Z,74.33
2023-02-19T20:26:28.175Z,75.90
2023-02-19T20:29:34.526Z,76.30
2023-02-19T20:32:39.756Z,75.43
2023-02-19T20:35:42.983Z,75.17
2023-02-19T20:38:46.911Z,74.48
2023-02-19T20:41:51.884Z,74.21
2023-02-19T20:44:56.565Z,74.37
2023-02-19T20:47:59.884Z,74.87
2023-02-19T20:51:03.237Z,74.67
2023-02-19T20:54:06.327Z,75.29
2023-02-19T20:57:10.301Z,75.88
2023-02-19T21:00:15.690Z,76.44
2023-02-19T21:03:18.832Z,77.35
2023-02-19T21:06:22.786Z,77.89
2023-02-19T21:09:25.657Z,77.76
2023-02-19T21:12:28.927Z,77.59
2023-02-19T21:15:34.480Z,77.63
2023-02-19T21:18:37.547Z,78.70
2023-02-19T21:21:40.784Z,77.92
2023-02-19T21:24:43.733Z,78.23
2023-02-19T21:27:46.703Z,77.43
2023-02-19T21:30:49.825Z,76.94
2023-02-19T21:33:52.762Z,76.49
2023-02-19T21:36:56.591Z,76.06
2023-02-19T21:40:00.616Z,74.86
2023-02-19T21:43:04.668Z,75.21
2023-02-19T21:46:07.574Z,74.61
2023-02-19T21:49:11.728Z,74.23
2023-02-19T21:52:14.803Z,74.20
2023-02-19T21:55:17.716Z,72.93
2023-02-19T21:58:20.856Z,73.28
2023-02-19T22:01:30.277Z,73.94
2023-02-19T22:04:33.112Z,73.35
2023-02-19T22:07:35.968Z,73.45
2023-02-19T22:10:42.676Z,71.58
2023-02-19T22:13:45.563Z,71.29
2023-02-19T22:16:48.545Z,71.01
2023-02-19T22:19:51.467Z,70.62
2023-02-19T22:22:54.354Z,71.08
2023-02-19T22:25:57.248Z,70.78
2023-02-19T22:29:01.559Z,71.07
2023-02-19T22:32:04.744Z,71.03
2023-02-19T22:35:07.893Z,69.81
2023-02-19T22:38:10.794Z,70.18
2023-02-19T22:41:14.642Z,70.38
2023-02-19T22:44:17.932Z,69.72
2023-02-19T22:47:20.870Z,69.84
2023-02-19T22:50:23.965Z,69.76
2023-02-19T22:53:26.909Z,70.25
2023-02-19T22:56:30.342Z,70.42
2023-02-19T22:59:33.217Z,70.51
2023-02-19T23:02:36.552Z,70.99
2023-02-19T23:05:39.934Z,72.03
2023-02-19T23:08:44.229Z,72.07
2023-02-19T23:11:47.825Z,72.05
2023-02-19T23:14:50.640Z,73.23
2023-02-19T23:17:53.483Z,73.56
2023-02-19T23:20:56.379Z,73.42
2023-02-19T23:23:59.704Z,72.86
2023-02-19T23:27:02.589Z,72.54
2023-02-19T23:30:06.266Z,72.66
2023-02-19T23:33:09.125Z,71.47
2023-02-19T23:36:14.072Z,72.94
2023-02-19T23:39:20.562Z,71.77
2023-02-19T23:42:23.433Z,72.14
2023-02-19T23:45:26.285Z,71.50
2023-02-19T23:48:29.014Z,71.71
2023-02-19T23:51:31.873Z,71.32
2023-02-19T23:54:35.087Z,71.57
2023-02-19T23:57:37.970Z,72.07
